createdAt,value
2022-11-13T00:00:58.075Z,10.58
2022-11-13T00:03:20.307Z,10.58
2022-11-13T00:05:42.517Z,10.61
2022-11-13T00:08:04.943Z,10.62
2022-11-13T00:10:27.262Z,10.60
2022-11-13T00:12:49.561Z,10.61
2022-11-13T00:15:11.824Z,10.63
2022-11-13T00:17:34.094Z,10.60
2022-11-13T00:19:56.376Z,10.61
2022-11-13T00:22:18.572Z,10.60
2022-11-13T00:24:40.804Z,10.62
2022-11-13T00:27:03.024Z,10.64
2022-11-13T00:29:25.268Z,10.68
2022-11-13T00:31:47.516Z,10.66
2022-11-13T00:34:26.355Z,10.66
2022-11-13T00:36:52.870Z,10.69
2022-11-13T00:39:15.159Z,10.66
2022-11-13T00:41:37.428Z,10.71
2022-11-13T00:43:59.751Z,10.67
2022-11-13T00:46:21.961Z,10.65
2022-11-13T00:48:44.373Z,10.59
2022-11-13T00:51:06.675Z,10.54
2022-11-13T00:53:28.884Z,10.54
2022-11-13T00:55:51.170Z,10.51
2022-11-13T00:58:13.528Z,10.46
2022-11-13T01:00:35.757Z,10.44
2022-11-13T01:02:59.030Z,10.43
2022-11-13T01:05:21.290Z,10.40
2022-11-13T01:07:43.526Z,10.40
2022-11-13T01:10:06.083Z,10.36
2022-11-13T01:12:28.322Z,10.34
2022-11-13T01:14:50.555Z,10.38
2022-11-13T01:17:12.782Z,10.40
2022-11-13T01:19:35.009Z,10.36
2022-11-13T01:21:57.232Z,10.35
2022-11-13T01:24:19.435Z,10.41
2022-11-13T01:26:41.690Z,10.38
2022-11-13T01:29:03.888Z,10.36
2022-11-13T01:31:27.774Z,10.41
2022-11-13T01:33:50.040Z,10.41
2022-11-13T01:36:16.641Z,10.38
2022-11-13T01:38:39.078Z,10.40
2022-11-13T01:41:01.497Z,10.34
2022-11-13T01:43:30.914Z,10.35
2022-11-13T01:45:59.059Z,10.36
2022-11-13T01:48:21.295Z,10.39
2022-11-13T01:50:43.536Z,10.35
2022-11-13T01:53:05.811Z,10.38
2022-11-13T01:55:28.094Z,10.36
2022-11-13T01:57:50.351Z,10.38
2022-11-13T02:00:12.933Z,10.37
2022-11-13T02:02:35.367Z,10.33
2022-11-13T02:04:57.588Z,10.32
2022-11-13T02:07:20.509Z,10.34
2022-11-13T02:09:43.927Z,10.37
2022-11-13T02:12:07.134Z,10.37
2022-11-13T02:14:29.604Z,10.39
2022-11-13T02:16:53.605Z,10.42
2022-11-13T02:19:32.569Z,10.43
2022-11-13T02:21:59.699Z,10.38
2022-11-13T02:24:25.400Z,10.42
2022-11-13T02:26:47.836Z,10.43
2022-11-13T02:29:10.060Z,10.39
2022-11-13T02:31:32.283Z,10.41
2022-11-13T02:33:54.597Z,10.41
2022-11-13T02:36:16.938Z,10.40
2022-11-13T02:38:39.385Z,10.38
2022-11-13T02:41:01.599Z,10.41
2022-11-13T02:43:23.860Z,10.43
2022-11-13T02:45:46.127Z,10.44
2022-11-13T02:48:08.405Z,10.44
2022-11-13T02:50:30.832Z,10.44
2022-11-13T02:52:53.119Z,10.44
2022-11-13T02:55:15.357Z,10.40
2022-11-13T02:57:37.536Z,10.41
2022-11-13T02:59:59.807Z,10.46
2022-11-13T03:02:22.032Z,10.48
2022-11-13T03:05:10.731Z,10.50
2022-11-13T03:07:27.140Z,10.48
2022-11-13T03:09:49.349Z,10.49
2022-11-13T03:12:11.565Z,10.51
2022-11-13T03:14:33.814Z,10.52
2022-11-13T03:16:56.026Z,10.50
2022-11-13T03:19:18.242Z,10.49
2022-11-13T03:21:40.472Z,10.49
2022-11-13T03:24:02.755Z,10.50
2022-11-13T03:26:25.147Z,10.49
2022-11-13T03:28:47.381Z,10.49
2022-11-13T03:31:09.585Z,10.49
2022-11-13T03:33:32.013Z,10.47
2022-11-13T03:35:54.314Z,10.45
2022-11-13T03:38:16.545Z,10.46
2022-11-13T03:40:38.787Z,10.48
2022-11-13T03:43:01.014Z,10.48
2022-11-13T03:45:23.228Z,10.49
2022-11-13T03:47:45.455Z,10.49
2022-11-13T03:50:07.860Z,10.49
2022-11-13T03:52:30.082Z,10.45
2022-11-13T03:54:52.362Z,10.48
2022-11-13T03:57:14.963Z,10.49
2022-11-13T03:59:37.226Z,10.49
2022-11-13T04:01:59.445Z,10.48
2022-11-13T04:04:21.729Z,10.47
2022-11-13T04:06:43.968Z,10.45
2022-11-13T04:09:06.808Z,10.47
2022-11-13T04:11:29.039Z,10.42
2022-11-13T04:13:51.268Z,10.44
2022-11-13T04:16:13.549Z,10.44
2022-11-13T04:18:35.759Z,10.45
2022-11-13T04:21:01.763Z,10.46
2022-11-13T04:23:23.950Z,10.46
2022-11-13T04:25:48.326Z,10.45
2022-11-13T04:28:10.910Z,10.49
2022-11-13T04:30:33.120Z,10.48
2022-11-13T04:32:55.408Z,10.49
2022-11-13T04:35:17.660Z,10.47
2022-11-13T04:37:39.942Z,10.46
2022-11-13T04:40:02.429Z,10.46
2022-11-13T04:42:43.177Z,10.44
2022-11-13T04:45:05.929Z,10.46
2022-11-13T04:47:28.172Z,10.47
2022-11-13T04:49:50.400Z,10.49
2022-11-13T04:52:13.182Z,10.49
2022-11-13T04:54:35.456Z,10.49
2022-11-13T04:56:57.681Z,10.51
2022-11-13T04:59:19.882Z,10.50
2022-11-13T05:01:42.258Z,10.53
2022-11-13T05:04:04.573Z,10.54
2022-11-13T05:06:26.774Z,10.55
2022-11-13T05:08:49.040Z,10.54
2022-11-13T05:11:11.235Z,10.54
2022-11-13T05:13:34.268Z,10.53
2022-11-13T05:16:09.624Z,10.55
2022-11-13T05:18:32.098Z,10.56
2022-11-13T05:20:54.322Z,10.58
2022-11-13T05:23:16.534Z,10.59
2022-11-13T05:25:38.789Z,10.58
2022-11-13T05:28:01.019Z,10.58
2022-11-13T05:30:23.235Z,10.57
2022-11-13T05:32:45.469Z,10.56
2022-11-13T05:35:08.018Z,10.54
2022-11-13T05:37:30.251Z,10.54
2022-11-13T05:39:52.510Z,10.50
2022-11-13T05:42:14.774Z,10.45
2022-11-13T05:44:36.981Z,10.50
2022-11-13T05:46:59.189Z,10.50
2022-11-13T05:49:21.413Z,10.50
2022-11-13T05:51:43.704Z,10.50
2022-11-13T05:54:06.361Z,10.52
2022-11-13T05:56:33.505Z,10.51
2022-11-13T05:58:56.100Z,10.50
2022-11-13T06:01:20.174Z,10.53
2022-11-13T06:03:42.560Z,10.54
2022-11-13T06:06:05.978Z,10.59
2022-11-13T06:08:28.397Z,10.59
2022-11-13T06:10:50.772Z,10.60
2022-11-13T06:13:12.996Z,10.60
2022-11-13T06:15:35.233Z,10.60
2022-11-13T06:17:57.427Z,10.59
2022-11-13T06:20:19.672Z,10.58
2022-11-13T06:22:41.920Z,10.55
2022-11-13T06:25:04.377Z,10.54
2022-11-13T06:27:27.402Z,10.54
2022-11-13T06:29:49.599Z,10.52
2022-11-13T06:32:11.822Z,10.53
2022-11-13T06:34:34.025Z,10.54
2022-11-13T06:36:56.282Z,10.51
2022-11-13T06:39:19.707Z,10.52
2022-11-13T06:41:41.905Z,10.54
2022-11-13T06:44:04.167Z,10.53
2022-11-13T06:46:27.861Z,10.54
2022-11-13T06:48:50.182Z,10.54
2022-11-13T06:51:14.738Z,10.55
2022-11-13T06:53:36.988Z,10.57
2022-11-13T06:55:59.504Z,10.57
2022-11-13T06:58:21.702Z,10.60
2022-11-13T07:00:44.035Z,10.62
2022-11-13T07:03:06.300Z,10.63
2022-11-13T07:05:28.495Z,10.68
2022-11-13T07:07:52.046Z,10.70
2022-11-13T07:10:14.296Z,10.71
2022-11-13T07:12:36.584Z,10.75
2022-11-13T07:14:58.785Z,10.76
2022-11-13T07:17:21.018Z,10.78
2022-11-13T07:19:43.241Z,10.80
2022-11-13T07:22:05.449Z,10.83
2022-11-13T07:24:27.646Z,10.81
2022-11-13T07:26:49.887Z,10.83
2022-11-13T07:29:12.107Z,10.84
2022-11-13T07:31:34.334Z,10.85
2022-11-13T07:33:56.538Z,10.85
2022-11-13T07:36:18.760Z,10.82
2022-11-13T07:38:41.020Z,10.81
2022-11-13T07:41:03.205Z,10.82
2022-11-13T07:43:25.573Z,10.81
2022-11-13T07:45:47.838Z,10.75
2022-11-13T07:48:10.083Z,10.75
2022-11-13T07:50:34.081Z,10.73
2022-11-13T07:53:00.083Z,10.73
2022-11-13T07:55:22.324Z,10.69
2022-11-13T07:57:44.573Z,10.75
2022-11-13T08:00:07.560Z,10.77
2022-11-13T08:02:29.768Z,10.79
2022-11-13T08:04:52.045Z,10.79
2022-11-13T08:07:14.365Z,10.81
2022-11-13T08:09:36.606Z,10.81
2022-11-13T08:11:58.850Z,10.78
2022-11-13T08:14:21.091Z,10.82
2022-11-13T08:16:43.276Z,10.84
2022-11-13T08:19:05.506Z,10.82
2022-11-13T08:21:27.768Z,10.84
2022-11-13T08:23:50.431Z,10.87
2022-11-13T08:26:12.753Z,10.91
2022-11-13T08:28:35.169Z,10.90
2022-11-13T08:30:57.416Z,10.90
2022-11-13T08:33:19.702Z,10.88
2022-11-13T08:35:41.933Z,10.89
2022-11-13T08:38:04.932Z,10.89
2022-11-13T08:40:27.226Z,10.93
2022-11-13T08:42:50.093Z,10.96
2022-11-13T08:45:12.387Z,10.99
2022-11-13T08:47:34.623Z,11.00
2022-11-13T08:49:56.839Z,11.02
2022-11-13T08:52:19.051Z,11.02
2022-11-13T08:54:21.064Z,11.01
2022-11-13T08:56:23.516Z,11.00
2022-11-13T08:58:26.065Z,11.06
2022-11-13T09:00:29.050Z,11.07
2022-11-13T09:02:31.233Z,11.11
2022-11-13T09:04:33.234Z,11.11
2022-11-13T09:06:35.365Z,11.15
2022-11-13T09:08:39.798Z,11.17
2022-11-13T09:10:41.943Z,11.19
2022-11-13T09:12:44.611Z,11.21
2022-11-13T09:14:47.217Z,11.25
2022-11-13T09:16:49.882Z,11.23
2022-11-13T09:18:52.518Z,11.23
2022-11-13T09:20:55.751Z,11.14
2022-11-13T09:23:02.982Z,11.13
2022-11-13T09:25:05.274Z,11.12
2022-11-13T09:27:07.236Z,11.11
2022-11-13T09:29:10.334Z,11.06
2022-11-13T09:31:12.274Z,11.03
2022-11-13T09:33:15.477Z,11.04
2022-11-13T09:35:33.823Z,11.03
2022-11-13T09:37:36.404Z,11.03
2022-11-13T09:39:39.274Z,11.03
2022-11-13T09:41:46.123Z,11.05
2022-11-13T09:43:49.890Z,10.97
2022-11-13T09:45:54.856Z,10.98
2022-11-13T09:47:59.750Z,10.92
2022-11-13T09:50:17.600Z,10.85
2022-11-13T09:52:24.692Z,10.85
2022-11-13T09:54:27.166Z,10.82
2022-11-13T09:56:51.588Z,10.80
2022-11-13T09:59:16.901Z,10.79
2022-11-13T10:02:00.852Z,10.79
2022-11-13T10:04:06.563Z,10.76
2022-11-13T10:06:35.957Z,10.76
2022-11-13T10:09:03.874Z,10.74
2022-11-13T10:11:35.543Z,10.73
2022-11-13T10:13:44.114Z,10.71
2022-11-13T10:15:47.206Z,10.68
2022-11-13T10:18:02.183Z,10.71
2022-11-13T10:20:16.162Z,10.67
2022-11-13T10:22:34.607Z,10.67
2022-11-13T10:24:43.992Z,10.66
2022-11-13T10:26:46.410Z,10.61
2022-11-13T10:28:51.378Z,10.59
2022-11-13T10:30:53.818Z,10.59
2022-11-13T10:33:02.282Z,10.57
2022-11-13T10:35:07.290Z,10.52
2022-11-13T10:37:48.971Z,10.53
2022-11-13T10:39:51.360Z,10.51
2022-11-13T10:41:54.221Z,10.55
2022-11-13T10:44:06.550Z,10.56
2022-11-13T10:46:20.093Z,10.54
2022-11-13T10:48:26.037Z,10.50
2022-11-13T10:50:29.483Z,10.54
2022-11-13T10:52:31.908Z,10.53
2022-11-13T10:54:34.345Z,10.52
2022-11-13T10:56:36.665Z,10.52
2022-11-13T10:58:38.648Z,10.52
2022-11-13T11:00:44.389Z,10.56
2022-11-13T11:02:50.210Z,10.52
2022-11-13T11:05:03.163Z,10.47
2022-11-13T11:07:21.098Z,10.41
2022-11-13T11:09:26.123Z,10.43
2022-11-13T11:11:46.888Z,10.42
2022-11-13T11:13:49.549Z,10.45
2022-11-13T11:15:54.356Z,10.49
2022-11-13T11:17:59.745Z,10.53
2022-11-13T11:20:23.818Z,10.54
2022-11-13T11:22:28.293Z,10.51
2022-11-13T11:24:36.609Z,10.52
2022-11-13T11:26:47.644Z,10.54
2022-11-13T11:29:28.004Z,10.60
2022-11-13T11:32:08.837Z,10.62
2022-11-13T11:34:56.254Z,10.63
2022-11-13T11:37:06.326Z,10.67
2022-11-13T11:39:46.327Z,10.68
2022-11-13T11:41:57.619Z,10.65
2022-11-13T11:44:14.033Z,10.67
2022-11-13T11:46:23.049Z,10.69
2022-11-13T11:48:27.953Z,10.71
2022-11-13T11:50:50.648Z,10.75
2022-11-13T11:53:10.752Z,10.81
2022-11-13T11:55:30.332Z,10.86
2022-11-13T11:57:59.145Z,10.91
2022-11-13T12:00:12.249Z,10.95
2022-11-13T12:02:30.448Z,11.02
2022-11-13T12:04:32.596Z,11.00
2022-11-13T12:07:12.892Z,11.03
2022-11-13T12:09:24.823Z,11.07
2022-11-13T12:11:31.982Z,11.08
2022-11-13T12:13:40.130Z,11.15
2022-11-13T12:15:48.546Z,11.15
2022-11-13T12:18:16.723Z,11.14
2022-11-13T12:20:30.038Z,11.14
2022-11-13T12:22:39.465Z,11.17
2022-11-13T12:25:14.015Z,11.10
2022-11-13T12:27:36.810Z,11.11
2022-11-13T12:29:52.224Z,11.14
2022-11-13T12:32:12.352Z,11.09
2022-11-13T12:34:24.892Z,11.09
2022-11-13T12:36:27.676Z,11.06
2022-11-13T12:39:01.238Z,11.09
2022-11-13T12:41:25.832Z,11.10
2022-11-13T12:43:40.848Z,11.04
2022-11-13T12:45:53.484Z,11.09
2022-11-13T12:47:55.856Z,11.09
2022-11-13T12:50:00.083Z,11.07
2022-11-13T12:52:15.836Z,11.12
2022-11-13T12:54:28.573Z,11.12
2022-11-13T12:56:32.726Z,11.09
2022-11-13T12:58:35.695Z,11.08
2022-11-13T13:00:39.454Z,11.05
2022-11-13T13:03:18.999Z,11.07
2022-11-13T13:05:36.682Z,11.06
2022-11-13T13:08:05.138Z,11.08
2022-11-13T13:10:34.882Z,11.10
2022-11-13T13:13:00.445Z,11.11
2022-11-13T13:15:05.539Z,11.10
2022-11-13T13:17:14.296Z,11.07
2022-11-13T13:19:28.607Z,11.05
2022-11-13T13:21:40.457Z,11.08
2022-11-13T13:23:50.587Z,11.05
2022-11-13T13:26:15.110Z,11.07
2022-11-13T13:28:24.437Z,11.02
2022-11-13T13:30:26.724Z,10.99
2022-11-13T13:32:32.690Z,10.90
2022-11-13T13:35:00.307Z,10.83
2022-11-13T13:37:04.383Z,10.83
2022-11-13T13:39:22.312Z,10.77
2022-11-13T13:41:33.391Z,10.72
2022-11-13T13:43:57.430Z,10.65
2022-11-13T13:46:22.053Z,10.63
2022-11-13T13:48:25.500Z,10.55
2022-11-13T13:50:31.084Z,10.47
2022-11-13T13:52:33.682Z,10.45
2022-11-13T13:54:35.768Z,10.43
2022-11-13T13:56:41.543Z,10.40
2022-11-13T13:58:44.437Z,10.38
2022-11-13T14:01:17.883Z,10.38
2022-11-13T14:03:22.627Z,10.40
2022-11-13T14:05:27.650Z,10.41
2022-11-13T14:07:30.447Z,10.42
2022-11-13T14:09:32.577Z,10.43
2022-11-13T14:11:34.551Z,10.44
2022-11-13T14:13:38.149Z,10.40
2022-11-13T14:15:40.934Z,10.40
2022-11-13T14:17:44.685Z,10.37
2022-11-13T14:19:54.665Z,10.37
2022-11-13T14:21:58.875Z,10.33
2022-11-13T14:24:02.554Z,10.35
2022-11-13T14:26:05.533Z,10.35
2022-11-13T14:28:19.168Z,10.38
2022-11-13T14:30:30.542Z,10.34
2022-11-13T14:32:34.451Z,10.35
2022-11-13T14:34:36.635Z,10.33
2022-11-13T14:36:39.679Z,10.34
2022-11-13T14:38:51.786Z,10.36
2022-11-13T14:40:55.219Z,10.35
2022-11-13T14:42:59.861Z,10.35
2022-11-13T14:45:25.201Z,10.38
2022-11-13T14:47:30.150Z,10.38
2022-11-13T14:49:36.890Z,10.35
2022-11-13T14:51:39.793Z,10.30
2022-11-13T14:53:42.425Z,10.26
2022-11-13T14:55:52.455Z,10.21
2022-11-13T14:57:54.538Z,10.20
2022-11-13T14:59:57.362Z,10.22
2022-11-13T15:02:00.341Z,10.23
2022-11-13T15:04:02.899Z,10.20
2022-11-13T15:06:09.380Z,10.13
2022-11-13T15:08:12.700Z,10.10
2022-11-13T15:10:17.481Z,10.08
2022-11-13T15:12:19.850Z,10.09
2022-11-13T15:14:23.090Z,10.08
2022-11-13T15:16:28.506Z,10.06
2022-11-13T15:18:31.442Z,10.05
2022-11-13T15:20:34.307Z,10.04
2022-11-13T15:22:36.768Z,10.05
2022-11-13T15:24:46.852Z,10.03
2022-11-13T15:26:49.428Z,10.03
2022-11-13T15:28:51.992Z,9.97
2022-11-13T15:30:54.794Z,9.99
2022-11-13T15:32:59.373Z,9.99
2022-11-13T15:35:02.251Z,9.99
2022-11-13T15:37:12.246Z,9.98
2022-11-13T15:39:23.093Z,9.98
2022-11-13T15:41:27.270Z,9.98
2022-11-13T15:43:29.676Z,9.92
2022-11-13T15:45:32.852Z,9.90
2022-11-13T15:47:36.384Z,9.93
2022-11-13T15:49:40.742Z,9.87
2022-11-13T15:51:49.857Z,9.79
2022-11-13T15:54:00.514Z,9.81
2022-11-13T15:56:05.199Z,9.81
2022-11-13T15:58:14.604Z,9.77
2022-11-13T16:00:26.995Z,9.72
2022-11-13T16:02:39.110Z,9.74
2022-11-13T16:04:55.553Z,9.70
2022-11-13T16:06:58.274Z,9.74
2022-11-13T16:09:03.929Z,9.74
2022-11-13T16:11:06.013Z,9.77
2022-11-13T16:13:08.550Z,9.75
2022-11-13T16:15:13.992Z,9.73
2022-11-13T16:17:20.278Z,9.69
2022-11-13T16:19:23.753Z,9.67
2022-11-13T16:21:25.622Z,9.65
2022-11-13T16:23:28.282Z,9.69
2022-11-13T16:25:30.373Z,9.67
2022-11-13T16:27:35.911Z,9.65
2022-11-13T16:29:37.995Z,9.62
2022-11-13T16:31:40.483Z,9.64
2022-11-13T16:33:42.591Z,9.59
2022-11-13T16:35:45.455Z,9.61
2022-11-13T16:37:47.737Z,9.58
2022-11-13T16:39:50.583Z,9.56
2022-11-13T16:41:53.096Z,9.55
2022-11-13T16:43:55.737Z,9.51
2022-11-13T16:45:59.236Z,9.41
2022-11-13T16:48:01.810Z,9.38
2022-11-13T16:50:04.642Z,9.43
2022-11-13T16:52:06.570Z,9.36
2022-11-13T16:54:08.781Z,9.33
2022-11-13T16:56:24.888Z,9.35
2022-11-13T16:58:27.450Z,9.32
2022-11-13T17:00:29.584Z,9.33
2022-11-13T17:02:32.397Z,9.33
2022-11-13T17:04:34.377Z,9.30
2022-11-13T17:06:36.957Z,9.31
2022-11-13T17:08:40.958Z,9.31
2022-11-13T17:10:43.538Z,9.29
2022-11-13T17:12:55.354Z,9.25
2022-11-13T17:14:57.937Z,9.25
2022-11-13T17:17:01.416Z,9.20
2022-11-13T17:19:04.073Z,9.19
2022-11-13T17:21:06.726Z,9.18
2022-11-13T17:23:18.588Z,9.20
2022-11-13T17:25:23.373Z,9.19
2022-11-13T17:27:25.293Z,9.23
2022-11-13T17:29:28.276Z,9.21
2022-11-13T17:31:30.347Z,9.17
2022-11-13T17:33:33.017Z,9.14
2022-11-13T17:35:35.449Z,9.14
2022-11-13T17:37:38.371Z,9.14
2022-11-13T17:39:40.300Z,9.19
2022-11-13T17:41:42.561Z,9.20
2022-11-13T17:43:45.184Z,9.20
2022-11-13T17:45:50.965Z,9.19
2022-11-13T17:47:53.934Z,9.20
2022-11-13T17:50:01.165Z,9.20
2022-11-13T17:52:06.527Z,9.19
2022-11-13T17:54:09.172Z,9.21
2022-11-13T17:56:12.156Z,9.17
2022-11-13T17:58:14.548Z,9.17
2022-11-13T18:00:17.477Z,9.15
2022-11-13T18:02:19.589Z,9.18
2022-11-13T18:04:22.184Z,9.22
2022-11-13T18:06:24.828Z,9.23
2022-11-13T18:08:27.614Z,9.23
2022-11-13T18:10:31.780Z,9.22
2022-11-13T18:12:34.476Z,9.25
2022-11-13T18:14:36.372Z,9.25
2022-11-13T18:16:38.417Z,9.25
2022-11-13T18:18:40.915Z,9.22
2022-11-13T18:20:42.899Z,9.23
2022-11-13T18:22:44.875Z,9.20
2022-11-13T18:24:46.868Z,9.20
2022-11-13T18:26:48.865Z,9.13
2022-11-13T18:28:50.783Z,9.13
2022-11-13T18:30:56.700Z,9.13
2022-11-13T18:32:58.748Z,9.13
2022-11-13T18:35:00.829Z,9.11
2022-11-13T18:37:02.858Z,9.08
2022-11-13T18:39:05.781Z,9.06
2022-11-13T18:41:13.290Z,9.05
2022-11-13T18:43:16.404Z,9.06
2022-11-13T18:45:19.016Z,9.05
2022-11-13T18:47:21.387Z,9.02
2022-11-13T18:49:23.815Z,9.03
2022-11-13T18:51:30.378Z,9.00
2022-11-13T18:53:32.927Z,8.99
2022-11-13T18:55:35.476Z,9.01
2022-11-13T18:57:37.779Z,8.95
2022-11-13T18:59:40.386Z,8.93
2022-11-13T19:01:42.406Z,8.91
2022-11-13T19:04:08.411Z,8.89
2022-11-13T19:06:11.696Z,8.90
2022-11-13T19:08:14.414Z,8.89
2022-11-13T19:10:18.024Z,8.86
2022-11-13T19:12:20.215Z,8.85
2022-11-13T19:14:22.619Z,8.84
2022-11-13T19:16:33.149Z,8.85
2022-11-13T19:18:36.351Z,8.85
2022-11-13T19:20:39.215Z,8.83
2022-11-13T19:22:42.089Z,8.83
2022-11-13T19:24:44.994Z,8.81
2022-11-13T19:26:47.271Z,8.81
2022-11-13T19:28:51.571Z,8.82
2022-11-13T19:30:56.721Z,8.78
2022-11-13T19:32:58.944Z,8.81
2022-11-13T19:35:01.335Z,8.85
2022-11-13T19:37:04.156Z,8.83
2022-11-13T19:39:06.305Z,8.85
2022-11-13T19:41:09.120Z,8.80
2022-11-13T19:43:11.610Z,8.82
2022-11-13T19:45:14.613Z,8.81
2022-11-13T19:47:17.319Z,8.82
2022-11-13T19:49:19.976Z,8.81
2022-11-13T19:51:23.519Z,8.81
2022-11-13T19:53:25.412Z,8.80
2022-11-13T19:55:27.353Z,8.77
2022-11-13T19:57:29.248Z,8.70
2022-11-13T19:59:31.238Z,8.71
2022-11-13T20:01:33.483Z,8.72
2022-11-13T20:03:35.407Z,8.72
2022-11-13T20:05:40.944Z,8.72
2022-11-13T20:07:42.879Z,8.70
2022-11-13T20:09:44.775Z,8.70
2022-11-13T20:11:46.770Z,8.66
2022-11-13T20:13:48.755Z,8.64
2022-11-13T20:15:54.807Z,8.60
2022-11-13T20:17:56.745Z,8.64
2022-11-13T20:19:58.692Z,8.58
2022-11-13T20:22:00.990Z,8.58
2022-11-13T20:24:03.617Z,8.58
2022-11-13T20:26:08.163Z,8.56
2022-11-13T20:28:10.962Z,8.54
2022-11-13T20:30:13.280Z,8.51
2022-11-13T20:32:16.203Z,8.52
2022-11-13T20:34:18.979Z,8.49
2022-11-13T20:36:21.014Z,8.46
2022-11-13T20:38:23.486Z,8.46
2022-11-13T20:40:25.606Z,8.42
2022-11-13T20:42:28.533Z,8.40
2022-11-13T20:44:30.817Z,8.40
2022-11-13T20:46:33.265Z,8.43
2022-11-13T20:48:35.499Z,8.41
2022-11-13T20:50:37.914Z,8.40
2022-11-13T20:52:41.002Z,8.34
2022-11-13T20:54:43.314Z,8.38
2022-11-13T20:56:45.251Z,8.36
2022-11-13T20:58:47.904Z,8.35
2022-11-13T21:00:50.671Z,8.29
2022-11-13T21:02:52.569Z,8.27
2022-11-13T21:04:54.609Z,8.25
2022-11-13T21:06:57.273Z,8.20
2022-11-13T21:08:59.691Z,8.17
2022-11-13T21:11:02.630Z,8.15
2022-11-13T21:13:05.368Z,8.13
2022-11-13T21:15:08.628Z,8.14
2022-11-13T21:17:10.814Z,8.14
2022-11-13T21:19:13.822Z,8.12
2022-11-13T21:21:19.320Z,8.10
2022-11-13T21:23:22.027Z,8.10
2022-11-13T21:25:24.582Z,8.12
2022-11-13T21:27:27.059Z,8.11
2022-11-13T21:29:29.854Z,8.10
2022-11-13T21:31:32.367Z,8.07
2022-11-13T21:33:38.513Z,8.02
2022-11-13T21:35:40.707Z,8.01
2022-11-13T21:37:43.255Z,8.06
2022-11-13T21:39:45.983Z,8.09
2022-11-13T21:41:48.834Z,8.07
2022-11-13T21:43:52.124Z,8.06
2022-11-13T21:45:54.290Z,8.05
2022-11-13T21:47:56.266Z,8.04
2022-11-13T21:50:16.815Z,8.02
2022-11-13T21:52:37.315Z,8.03
2022-11-13T21:54:59.526Z,8.00
2022-11-13T21:57:23.472Z,8.05
2022-11-13T21:59:45.713Z,8.01
2022-11-13T22:02:10.436Z,8.04
2022-11-13T22:04:32.682Z,8.03
2022-11-13T22:06:55.007Z,7.99
2022-11-13T22:09:26.367Z,8.01
2022-11-13T22:11:48.605Z,7.95
2022-11-13T22:14:10.815Z,7.95
2022-11-13T22:16:35.190Z,7.97
2022-11-13T22:18:58.997Z,7.96
2022-11-13T22:21:21.426Z,7.96
2022-11-13T22:23:43.707Z,7.95
2022-11-13T22:26:07.547Z,7.94
2022-11-13T22:28:30.139Z,7.95
2022-11-13T22:30:52.972Z,7.94
2022-11-13T22:33:15.194Z,7.93
2022-11-13T22:35:37.390Z,7.88
2022-11-13T22:37:59.694Z,7.89
2022-11-13T22:40:21.903Z,7.89
2022-11-13T22:42:44.126Z,7.89
2022-11-13T22:45:22.880Z,7.88
2022-11-13T22:47:46.182Z,7.87
2022-11-13T22:50:08.738Z,7.88
2022-11-13T22:52:30.962Z,7.87
2022-11-13T22:54:53.192Z,7.89
2022-11-13T22:57:15.436Z,7.86
2022-11-13T22:59:37.644Z,7.88
2022-11-13T23:01:59.874Z,7.85
2022-11-13T23:04:22.386Z,7.82
2022-11-13T23:06:44.735Z,7.81
2022-11-13T23:09:07.027Z,7.81
2022-11-13T23:11:34.990Z,7.80
2022-11-13T23:13:58.797Z,7.81
2022-11-13T23:16:22.621Z,7.81
2022-11-13T23:18:44.901Z,7.73
2022-11-13T23:21:07.801Z,7.68
2022-11-13T23:23:30.593Z,7.64
2022-11-13T23:25:53.160Z,7.58
2022-11-13T23:28:15.375Z,7.55
2022-11-13T23:30:37.594Z,7.56
2022-11-13T23:32:59.894Z,7.53
2022-11-13T23:35:22.162Z,7.51
2022-11-13T23:37:44.408Z,7.46
2022-11-13T23:40:07.289Z,7.40
2022-11-13T23:42:53.573Z,7.43
2022-11-13T23:45:11.780Z,7.39
2022-11-13T23:47:34.001Z,7.37
2022-11-13T23:49:56.245Z,7.37
2022-11-13T23:52:18.482Z,7.37
2022-11-13T23:54:40.687Z,7.34
2022-11-13T23:57:02.923Z,7.27
2022-11-13T23:59:25.118Z,7.30
